createdAt,value
2018-11-13T00:00:52.270Z,10.90
2018-11-13T00:03:20.473Z,10.90
2018-11-13T00:05:48.753Z,10.90
2018-11-13T00:08:16.871Z,10.80
2018-11-13T00:10:45.940Z,10.80
2018-11-13T00:13:14.724Z,10.70
2018-11-13T00:15:43.387Z,10.70
2018-11-13T00:18:11.477Z,10.80
2018-11-13T00:20:40.203Z,10.80
2018-11-13T00:23:09.923Z,10.90
2018-11-13T00:25:38.182Z,10.90
2018-11-13T00:28:06.424Z,10.90
2018-11-13T00:30:34.464Z,10.90
2018-11-13T00:33:02.631Z,10.90
2018-11-13T00:35:30.602Z,10.90
2018-11-13T00:37:58.620Z,10.90
2018-11-13T00:40:26.637Z,10.90
2018-11-13T00:42:54.675Z,10.80
2018-11-13T00:45:22.773Z,10.80
2018-11-13T00:47:51.719Z,10.70
2018-11-13T00:50:20.533Z,10.70
2018-11-13T00:52:48.880Z,10.80
2018-11-13T00:55:16.739Z,10.80
2018-11-13T00:57:45.164Z,10.80
2018-11-13T01:00:16.293Z,10.70
2018-11-13T01:02:44.640Z,10.70
2018-11-13T01:05:13.969Z,10.70
2018-11-13T01:07:43.057Z,10.60
2018-11-13T01:10:13.243Z,10.60
2018-11-13T01:12:41.981Z,10.60
2018-11-13T01:15:11.559Z,10.50
2018-11-13T01:17:39.731Z,10.60
2018-11-13T01:20:08.026Z,10.60
2018-11-13T01:22:36.617Z,10.60
2018-11-13T01:25:04.704Z,10.60
2018-11-13T01:27:32.478Z,10.70
2018-11-13T01:30:00.816Z,10.60
2018-11-13T01:32:29.979Z,10.60
2018-11-13T01:34:58.056Z,10.50
2018-11-13T01:37:26.215Z,10.50
2018-11-13T01:39:54.607Z,10.50
2018-11-13T01:42:22.934Z,10.40
2018-11-13T01:44:51.225Z,10.40
2018-11-13T01:47:19.301Z,10.40
2018-11-13T01:49:47.376Z,10.40
2018-11-13T01:52:15.492Z,10.30
2018-11-13T01:54:43.561Z,10.30
2018-11-13T01:57:11.565Z,10.30
2018-11-13T01:59:39.614Z,10.30
2018-11-13T02:02:07.662Z,10.30
2018-11-13T02:04:35.708Z,10.30
2018-11-13T02:07:04.172Z,10.30
2018-11-13T02:09:32.074Z,10.20
2018-11-13T02:12:00.035Z,10.20
2018-11-13T02:14:28.133Z,10.20
2018-11-13T02:16:56.027Z,10.20
2018-11-13T02:19:24.201Z,10.20
2018-11-13T02:21:52.147Z,10.20
2018-11-13T02:24:20.291Z,10.20
2018-11-13T02:26:48.389Z,10.10
2018-11-13T02:29:16.517Z,10.10
2018-11-13T02:31:44.513Z,10.10
2018-11-13T02:34:12.506Z,10.10
2018-11-13T02:36:40.644Z,10.10
2018-11-13T02:39:09.830Z,10.10
2018-11-13T02:41:37.922Z,10.10
2018-11-13T02:44:06.544Z,10.10
2018-11-13T02:46:35.655Z,10.10
2018-11-13T02:49:03.858Z,10.10
2018-11-13T02:51:31.714Z,10.10
2018-11-13T02:53:59.805Z,10.10
2018-11-13T02:56:27.802Z,10.10
2018-11-13T02:58:56.092Z,10.00
2018-11-13T03:01:23.848Z,10.00
2018-11-13T03:03:51.729Z,10.00
2018-11-13T03:06:19.619Z,10.00
2018-11-13T03:08:47.669Z,10.00
2018-11-13T03:11:15.541Z,9.90
2018-11-13T03:13:43.792Z,9.90
2018-11-13T03:16:11.650Z,10.00
2018-11-13T03:18:39.577Z,10.00
2018-11-13T03:21:07.689Z,9.90
2018-11-13T03:23:35.535Z,9.90
2018-11-13T03:26:03.855Z,9.90
2018-11-13T03:28:32.851Z,10.00
2018-11-13T03:31:00.873Z,10.00
2018-11-13T03:33:28.927Z,10.00
2018-11-13T03:35:56.892Z,10.00
2018-11-13T03:38:24.873Z,10.00
2018-11-13T03:40:52.837Z,10.10
2018-11-13T03:43:20.760Z,10.10
2018-11-13T03:45:48.855Z,10.00
2018-11-13T03:48:16.791Z,10.00
2018-11-13T03:50:45.044Z,10.00
2018-11-13T03:53:13.069Z,10.10
2018-11-13T03:55:41.026Z,10.00
2018-11-13T03:58:09.014Z,10.00
2018-11-13T04:00:37.013Z,10.00
2018-11-13T04:03:05.106Z,10.00
2018-11-13T04:05:33.096Z,10.00
2018-11-13T04:08:01.094Z,10.00
2018-11-13T04:10:29.077Z,9.90
2018-11-13T04:12:57.357Z,10.00
2018-11-13T04:15:25.806Z,9.90
2018-11-13T04:17:54.118Z,10.00
2018-11-13T04:20:22.638Z,9.90
2018-11-13T04:22:50.687Z,10.00
2018-11-13T04:25:18.686Z,10.00
2018-11-13T04:27:46.885Z,9.90
2018-11-13T04:30:16.143Z,9.90
2018-11-13T04:32:44.374Z,9.90
2018-11-13T04:35:13.573Z,9.90
2018-11-13T04:37:41.700Z,10.00
2018-11-13T04:40:12.671Z,9.90
2018-11-13T04:42:41.689Z,9.90
2018-11-13T04:45:11.145Z,9.90
2018-11-13T04:47:39.199Z,9.90
2018-11-13T04:50:09.086Z,9.90
2018-11-13T04:52:37.083Z,9.90
2018-11-13T04:55:06.207Z,9.90
2018-11-13T04:57:34.261Z,9.90
2018-11-13T05:00:03.338Z,9.90
2018-11-13T05:02:31.548Z,9.80
2018-11-13T05:04:59.690Z,9.80
2018-11-13T05:07:27.615Z,9.80
2018-11-13T05:09:56.202Z,9.80
2018-11-13T05:12:24.233Z,9.80
2018-11-13T05:14:52.171Z,9.80
2018-11-13T05:17:20.247Z,9.90
2018-11-13T05:19:48.164Z,9.80
2018-11-13T05:22:16.518Z,9.80
2018-11-13T05:24:44.465Z,9.80
2018-11-13T05:27:12.400Z,9.80
2018-11-13T05:29:40.589Z,9.80
2018-11-13T05:32:09.245Z,9.80
2018-11-13T05:34:37.275Z,9.70
2018-11-13T05:37:05.243Z,9.70
2018-11-13T05:39:33.349Z,9.70
2018-11-13T05:42:01.226Z,9.70
2018-11-13T05:44:29.230Z,9.70
2018-11-13T05:46:57.386Z,9.70
2018-11-13T05:49:25.894Z,9.70
2018-11-13T05:51:53.959Z,9.70
2018-11-13T05:54:22.097Z,9.70
2018-11-13T05:56:50.573Z,9.70
2018-11-13T05:59:18.571Z,9.70
2018-11-13T06:01:46.646Z,9.70
2018-11-13T06:04:14.560Z,9.70
2018-11-13T06:06:42.626Z,9.70
2018-11-13T06:09:10.744Z,9.70
2018-11-13T06:11:38.653Z,9.70
2018-11-13T06:14:07.474Z,9.70
2018-11-13T06:16:36.046Z,9.70
2018-11-13T06:19:04.562Z,9.70
2018-11-13T06:21:32.816Z,9.70
2018-11-13T06:24:01.181Z,9.70
2018-11-13T06:26:29.297Z,9.70
2018-11-13T06:28:57.737Z,9.70
2018-11-13T06:31:26.065Z,9.70
2018-11-13T06:33:54.044Z,9.70
2018-11-13T06:36:21.940Z,9.70
2018-11-13T06:38:49.971Z,9.80
2018-11-13T06:41:18.011Z,9.80
2018-11-13T06:43:45.886Z,9.80
2018-11-13T06:46:14.054Z,9.70
2018-11-13T06:48:42.159Z,9.70
2018-11-13T06:51:10.134Z,9.70
2018-11-13T06:53:49.341Z,9.70
2018-11-13T06:56:17.374Z,9.80
2018-11-13T06:58:45.389Z,9.80
2018-11-13T07:01:13.506Z,9.80
2018-11-13T07:03:41.579Z,9.80
2018-11-13T07:06:09.502Z,9.80
2018-11-13T07:08:37.476Z,9.80
2018-11-13T07:11:05.669Z,9.80
2018-11-13T07:13:33.841Z,9.90
2018-11-13T07:16:01.733Z,9.90
2018-11-13T07:18:29.806Z,9.90
2018-11-13T07:20:57.885Z,9.80
2018-11-13T07:23:26.279Z,9.80
2018-11-13T07:25:54.322Z,9.80
2018-11-13T07:28:22.369Z,9.80
2018-11-13T07:30:50.411Z,9.70
2018-11-13T07:33:18.576Z,9.70
2018-11-13T07:35:47.276Z,9.70
2018-11-13T07:38:16.343Z,9.70
2018-11-13T07:40:44.943Z,9.80
2018-11-13T07:43:13.642Z,9.80
2018-11-13T07:45:41.878Z,9.80
2018-11-13T07:48:10.167Z,9.80
2018-11-13T07:50:38.774Z,9.70
2018-11-13T07:53:06.716Z,9.80
2018-11-13T07:55:34.812Z,9.70
2018-11-13T07:58:04.367Z,9.70
2018-11-13T08:00:32.500Z,9.70
2018-11-13T08:03:12.009Z,9.70
2018-11-13T08:05:40.060Z,9.70
2018-11-13T08:08:07.919Z,9.70
2018-11-13T08:10:35.998Z,9.70
2018-11-13T08:13:04.927Z,9.80
2018-11-13T08:15:33.109Z,9.80
2018-11-13T08:18:01.231Z,9.90
2018-11-13T08:20:29.183Z,10.00
2018-11-13T08:22:57.091Z,10.10
2018-11-13T08:25:25.478Z,10.20
2018-11-13T08:27:53.723Z,10.20
2018-11-13T08:30:21.880Z,10.30
2018-11-13T08:32:49.990Z,10.30
2018-11-13T08:35:18.222Z,10.30
2018-11-13T08:37:46.406Z,10.40
2018-11-13T08:40:15.939Z,10.50
2018-11-13T08:42:45.139Z,10.50
2018-11-13T08:45:14.090Z,10.60
2018-11-13T08:47:42.511Z,10.70
2018-11-13T08:50:12.021Z,10.70
2018-11-13T08:52:41.022Z,10.70
2018-11-13T08:55:09.601Z,10.80
2018-11-13T08:57:37.582Z,10.80
2018-11-13T09:00:08.613Z,10.90
2018-11-13T09:02:37.828Z,10.90
2018-11-13T09:05:06.482Z,10.90
2018-11-13T09:07:34.507Z,10.90
2018-11-13T09:10:03.651Z,11.00
2018-11-13T09:12:31.927Z,11.00
2018-11-13T09:15:00.076Z,11.00
2018-11-13T09:17:28.114Z,11.00
2018-11-13T09:19:56.091Z,11.00
2018-11-13T09:22:24.406Z,11.10
2018-11-13T09:24:52.364Z,11.00
2018-11-13T09:27:20.613Z,11.00
2018-11-13T09:29:48.762Z,11.00
2018-11-13T09:32:16.714Z,11.00
2018-11-13T09:34:44.916Z,11.00
2018-11-13T09:37:13.074Z,11.00
2018-11-13T09:39:41.176Z,11.00
2018-11-13T09:42:10.970Z,11.00
2018-11-13T09:44:39.148Z,11.00
2018-11-13T09:47:07.319Z,11.00
2018-11-13T09:49:35.620Z,11.00
2018-11-13T09:52:04.160Z,11.00
2018-11-13T09:54:32.475Z,11.00
2018-11-13T09:57:00.844Z,11.10
2018-11-13T09:59:28.838Z,11.10
2018-11-13T10:01:57.005Z,11.10
2018-11-13T10:04:25.125Z,11.20
2018-11-13T10:06:52.988Z,11.30
2018-11-13T10:09:21.619Z,11.30
2018-11-13T10:11:49.685Z,11.30
2018-11-13T10:14:17.762Z,11.30
2018-11-13T10:16:45.697Z,11.30
2018-11-13T10:19:13.660Z,11.20
2018-11-13T10:21:41.873Z,11.20
2018-11-13T10:24:10.271Z,11.10
2018-11-13T10:26:38.423Z,11.10
2018-11-13T10:29:07.554Z,11.10
2018-11-13T10:31:36.618Z,11.10
2018-11-13T10:34:04.648Z,11.10
2018-11-13T10:36:33.009Z,11.10
2018-11-13T10:39:01.232Z,11.10
2018-11-13T10:41:29.326Z,11.00
2018-11-13T10:43:57.424Z,11.00
2018-11-13T10:46:25.344Z,10.90
2018-11-13T10:48:53.743Z,10.90
2018-11-13T10:51:21.983Z,10.90
2018-11-13T10:53:49.905Z,10.90
2018-11-13T10:56:17.943Z,10.90
2018-11-13T10:58:45.973Z,10.90
2018-11-13T11:01:19.953Z,10.90
2018-11-13T11:04:00.663Z,10.90
2018-11-13T11:06:30.838Z,10.90
2018-11-13T11:08:59.076Z,10.80
2018-11-13T11:11:27.133Z,10.80
2018-11-13T11:13:55.290Z,10.80
2018-11-13T11:16:23.237Z,10.80
2018-11-13T11:18:51.291Z,10.80
2018-11-13T11:21:19.339Z,10.90
2018-11-13T11:23:47.312Z,11.00
2018-11-13T11:26:15.242Z,11.00
2018-11-13T11:28:43.488Z,11.10
2018-11-13T11:31:11.540Z,11.20
2018-11-13T11:33:40.234Z,11.30
2018-11-13T11:36:08.231Z,11.40
2018-11-13T11:38:36.248Z,11.50
2018-11-13T11:41:05.294Z,11.40
2018-11-13T11:43:33.536Z,11.50
2018-11-13T11:46:01.737Z,11.50
2018-11-13T11:48:30.059Z,11.40
2018-11-13T11:50:58.499Z,11.40
2018-11-13T11:53:26.771Z,11.40
2018-11-13T11:55:56.296Z,11.50
2018-11-13T11:58:27.875Z,11.50
2018-11-13T12:00:58.400Z,11.50
2018-11-13T12:03:27.538Z,11.60
2018-11-13T12:05:55.595Z,11.60
2018-11-13T12:08:23.845Z,11.60
2018-11-13T12:10:52.374Z,11.60
2018-11-13T12:13:22.228Z,11.50
2018-11-13T12:15:50.485Z,11.50
2018-11-13T12:18:18.497Z,11.40
2018-11-13T12:20:46.831Z,11.40
2018-11-13T12:23:14.939Z,11.30
2018-11-13T12:25:43.389Z,11.30
2018-11-13T12:28:11.571Z,11.20
2018-11-13T12:30:39.951Z,11.10
2018-11-13T12:33:08.343Z,11.10
2018-11-13T12:35:37.247Z,11.00
2018-11-13T12:38:05.843Z,11.00
2018-11-13T12:40:34.144Z,10.90
2018-11-13T12:43:02.225Z,10.90
2018-11-13T12:45:30.480Z,10.90
2018-11-13T12:47:58.464Z,11.00
2018-11-13T12:50:31.011Z,11.00
2018-11-13T12:52:59.575Z,11.20
2018-11-13T12:55:27.962Z,11.20
2018-11-13T12:57:58.146Z,11.20
2018-11-13T13:00:26.107Z,11.10
2018-11-13T13:02:54.352Z,11.10
2018-11-13T13:05:23.683Z,11.00
2018-11-13T13:07:52.063Z,11.00
2018-11-13T13:10:21.336Z,10.90
2018-11-13T13:12:50.586Z,10.90
2018-11-13T13:15:19.499Z,10.90
2018-11-13T13:17:48.129Z,10.90
2018-11-13T13:20:20.673Z,10.90
2018-11-13T13:22:49.470Z,10.90
2018-11-13T13:25:19.090Z,10.90
2018-11-13T13:27:47.694Z,10.90
2018-11-13T13:30:19.749Z,10.80
2018-11-13T13:32:49.024Z,10.70
2018-11-13T13:35:58.732Z,10.70
2018-11-13T13:38:26.811Z,10.60
2018-11-13T13:40:56.013Z,10.60
2018-11-13T13:43:25.696Z,10.60
2018-11-13T13:45:53.912Z,10.60
2018-11-13T13:48:23.110Z,10.60
2018-11-13T13:50:51.337Z,10.60
2018-11-13T13:53:20.526Z,10.70
2018-11-13T13:55:48.934Z,10.70
2018-11-13T13:58:17.377Z,10.80
2018-11-13T14:00:45.919Z,10.80
2018-11-13T14:03:14.762Z,10.80
2018-11-13T14:05:43.541Z,10.80
2018-11-13T14:08:12.520Z,10.70
2018-11-13T14:10:40.682Z,10.70
2018-11-13T14:13:09.328Z,10.60
2018-11-13T14:15:37.345Z,10.60
2018-11-13T14:18:05.433Z,10.50
2018-11-13T14:20:33.483Z,10.40
2018-11-13T14:23:01.533Z,10.40
2018-11-13T14:25:29.688Z,10.40
2018-11-13T14:27:58.043Z,10.40
2018-11-13T14:30:29.151Z,10.30
2018-11-13T14:32:59.323Z,10.30
2018-11-13T14:35:27.536Z,10.30
2018-11-13T14:37:55.902Z,10.20
2018-11-13T14:40:42.564Z,10.20
2018-11-13T14:43:11.269Z,10.20
2018-11-13T14:45:40.028Z,10.10
2018-11-13T14:48:08.844Z,10.00
2018-11-13T14:50:39.044Z,10.00
2018-11-13T14:53:07.642Z,9.90
2018-11-13T14:55:37.730Z,9.90
2018-11-13T14:58:07.056Z,9.90
2018-11-13T15:00:36.197Z,9.80
2018-11-13T15:03:05.770Z,9.80
2018-11-13T15:05:35.376Z,9.70
2018-11-13T15:08:04.882Z,9.60
2018-11-13T15:10:34.663Z,9.60
2018-11-13T15:13:02.872Z,9.60
2018-11-13T15:15:31.226Z,9.60
2018-11-13T15:17:59.352Z,9.60
2018-11-13T15:20:29.281Z,9.60
2018-11-13T15:22:58.037Z,9.50
2018-11-13T15:25:26.409Z,9.50
2018-11-13T15:27:54.785Z,9.50
2018-11-13T15:30:25.908Z,9.50
2018-11-13T15:33:00.419Z,9.50
2018-11-13T15:35:29.463Z,9.50
2018-11-13T15:37:57.486Z,9.50
2018-11-13T15:40:27.093Z,9.50
2018-11-13T15:42:55.306Z,9.40
2018-11-13T15:45:23.499Z,9.30
2018-11-13T15:47:52.547Z,9.20
2018-11-13T15:50:22.049Z,9.20
2018-11-13T15:52:51.414Z,9.10
2018-11-13T15:55:20.520Z,9.10
2018-11-13T15:57:48.777Z,9.10
2018-11-13T16:00:19.347Z,9.20
2018-11-13T16:02:47.543Z,9.20
2018-11-13T16:05:24.097Z,9.20
2018-11-13T16:07:53.493Z,9.20
2018-11-13T16:10:21.970Z,9.10
2018-11-13T16:12:50.773Z,9.10
2018-11-13T16:15:20.451Z,9.00
2018-11-13T16:17:50.142Z,9.00
2018-11-13T16:20:18.582Z,9.10
2018-11-13T16:22:47.130Z,9.10
2018-11-13T16:25:15.446Z,9.10
2018-11-13T16:27:43.543Z,9.10
2018-11-13T16:30:14.503Z,9.20
2018-11-13T16:32:43.356Z,9.20
2018-11-13T16:35:12.707Z,9.10
2018-11-13T16:37:42.201Z,9.00
2018-11-13T16:40:13.675Z,9.00
2018-11-13T16:42:42.533Z,9.00
2018-11-13T16:45:12.934Z,9.00
2018-11-13T16:47:41.193Z,9.00
2018-11-13T16:50:12.161Z,8.90
2018-11-13T16:52:40.962Z,8.90
2018-11-13T16:55:09.055Z,8.80
2018-11-13T16:57:37.442Z,8.70
2018-11-13T17:00:09.275Z,8.70
2018-11-13T17:02:39.284Z,8.70
2018-11-13T17:05:10.366Z,8.70
2018-11-13T17:07:39.883Z,8.70
2018-11-13T17:10:15.840Z,8.80
2018-11-13T17:12:45.364Z,8.80
2018-11-13T17:15:16.990Z,8.80
2018-11-13T17:17:46.205Z,8.80
2018-11-13T17:20:15.790Z,8.60
2018-11-13T17:22:44.660Z,8.60
2018-11-13T17:25:14.531Z,8.70
2018-11-13T17:27:44.229Z,8.60
2018-11-13T17:30:19.254Z,8.60
2018-11-13T17:32:46.238Z,8.60
2018-11-13T17:35:15.738Z,8.60
2018-11-13T17:37:44.802Z,8.60
2018-11-13T17:40:15.422Z,8.60
2018-11-13T17:42:45.408Z,8.70
2018-11-13T17:45:17.461Z,8.70
2018-11-13T17:47:46.208Z,8.70
2018-11-13T17:50:17.955Z,8.60
2018-11-13T17:52:47.255Z,8.60
2018-11-13T17:55:16.557Z,8.70
2018-11-13T17:57:46.028Z,8.70
2018-11-13T18:00:24.636Z,8.60
2018-11-13T18:02:53.554Z,8.60
2018-11-13T18:05:23.069Z,8.60
2018-11-13T18:07:52.059Z,8.50
2018-11-13T18:10:21.884Z,8.50
2018-11-13T18:12:51.405Z,8.40
2018-11-13T18:15:20.629Z,8.40
2018-11-13T18:17:49.128Z,8.30
2018-11-13T18:20:23.176Z,8.30
2018-11-13T18:22:52.781Z,8.20
2018-11-13T18:25:21.030Z,8.20
2018-11-13T18:27:50.520Z,8.10
2018-11-13T18:30:24.399Z,8.10
2018-11-13T18:32:53.259Z,8.00
2018-11-13T18:35:23.936Z,7.90
2018-11-13T18:37:53.125Z,7.90
2018-11-13T18:40:22.802Z,7.80
2018-11-13T18:42:52.454Z,7.80
2018-11-13T18:45:25.501Z,7.70
2018-11-13T18:47:53.823Z,7.60
2018-11-13T18:50:24.525Z,7.60
2018-11-13T18:52:53.455Z,7.50
2018-11-13T18:55:21.666Z,7.40
2018-11-13T18:57:49.815Z,7.30
2018-11-13T19:00:24.240Z,7.30
2018-11-13T19:02:52.456Z,7.20
2018-11-13T19:05:21.006Z,7.10
2018-11-13T19:07:54.264Z,7.00
2018-11-13T19:10:31.312Z,6.80
2018-11-13T19:13:01.220Z,6.80
2018-11-13T19:15:33.344Z,6.70
2018-11-13T19:18:02.422Z,6.60
2018-11-13T19:20:32.670Z,6.50
2018-11-13T19:23:02.747Z,6.40
2018-11-13T19:25:32.885Z,6.30
2018-11-13T19:28:04.014Z,6.20
2018-11-13T19:30:34.110Z,6.10
2018-11-13T19:33:05.453Z,6.10
2018-11-13T19:35:37.431Z,6.00
2018-11-13T19:38:08.697Z,5.90
2018-11-13T19:40:39.261Z,5.80
2018-11-13T19:43:12.711Z,5.80
2018-11-13T19:45:43.390Z,5.80
2018-11-13T19:48:12.509Z,5.70
2018-11-13T19:50:43.575Z,5.60
2018-11-13T19:53:15.622Z,5.50
2018-11-13T19:55:46.755Z,5.40
2018-11-13T19:58:17.157Z,5.40
2018-11-13T20:00:45.933Z,5.40
2018-11-13T20:03:19.363Z,5.40
2018-11-13T20:05:49.345Z,5.30
2018-11-13T20:08:19.794Z,5.30
2018-11-13T20:10:48.350Z,5.20
2018-11-13T20:13:18.709Z,5.00
2018-11-13T20:15:52.739Z,4.80
2018-11-13T20:18:22.808Z,4.70
2018-11-13T20:20:54.040Z,4.70
2018-11-13T20:23:25.050Z,4.60
2018-11-13T20:25:56.430Z,4.50
2018-11-13T20:28:26.386Z,4.40
2018-11-13T20:30:54.997Z,4.30
2018-11-13T20:33:27.002Z,4.20
2018-11-13T20:35:58.278Z,4.20
2018-11-13T20:38:28.604Z,4.10
2018-11-13T20:40:58.941Z,4.00
2018-11-13T20:43:28.763Z,3.90
2018-11-13T20:45:56.606Z,3.90
2018-11-13T20:48:25.556Z,3.80
2018-11-13T20:50:56.605Z,3.80
2018-11-13T20:53:26.825Z,3.70
2018-11-13T20:55:58.374Z,3.70
2018-11-13T20:58:28.224Z,3.60
2018-11-13T21:00:59.838Z,3.50
2018-11-13T21:03:28.914Z,3.50
2018-11-13T21:05:59.401Z,3.40
2018-11-13T21:08:32.464Z,3.40
2018-11-13T21:11:06.673Z,3.30
2018-11-13T21:13:39.042Z,3.30
2018-11-13T21:16:08.638Z,3.40
2018-11-13T21:18:37.944Z,3.70
2018-11-13T21:21:11.733Z,3.90
2018-11-13T21:23:41.347Z,4.30
2018-11-13T21:26:09.976Z,4.50
2018-11-13T21:28:38.460Z,4.70
2018-11-13T21:31:06.846Z,4.90
2018-11-13T21:33:35.704Z,5.10
2018-11-13T21:36:03.983Z,5.30
2018-11-13T21:38:32.375Z,5.30
2018-11-13T21:41:07.591Z,5.40
2018-11-13T21:43:36.095Z,5.60
2018-11-13T21:46:04.751Z,5.60
2018-11-13T21:48:33.136Z,5.80
2018-11-13T21:51:01.190Z,5.80
2018-11-13T21:53:29.454Z,6.00
2018-11-13T21:55:58.243Z,6.10
2018-11-13T21:58:26.717Z,6.10
2018-11-13T22:00:55.123Z,6.10
2018-11-13T22:03:23.484Z,6.00
2018-11-13T22:05:53.008Z,5.90
2018-11-13T22:08:22.979Z,5.80
2018-11-13T22:10:51.110Z,5.70
2018-11-13T22:13:20.605Z,5.60
2018-11-13T22:15:48.952Z,5.50
2018-11-13T22:18:17.422Z,5.50
2018-11-13T22:20:45.574Z,5.50
2018-11-13T22:23:13.805Z,5.50
2018-11-13T22:25:41.953Z,5.60
2018-11-13T22:28:10.639Z,5.70
2018-11-13T22:30:38.640Z,5.90
2018-11-13T22:33:06.949Z,6.00
2018-11-13T22:35:35.981Z,6.00
2018-11-13T22:38:04.763Z,6.00
2018-11-13T22:40:32.957Z,6.00
2018-11-13T22:43:01.648Z,5.90
2018-11-13T22:45:30.071Z,5.70
2018-11-13T22:47:58.425Z,5.50
2018-11-13T22:50:27.804Z,5.30
2018-11-13T22:52:56.147Z,5.20
2018-11-13T22:55:24.324Z,5.00
2018-11-13T22:57:53.872Z,4.80
2018-11-13T23:00:39.001Z,4.70
2018-11-13T23:03:09.038Z,4.60
2018-11-13T23:05:37.306Z,4.60
2018-11-13T23:08:06.105Z,4.50
2018-11-13T23:10:34.382Z,4.40
2018-11-13T23:13:03.066Z,4.40
2018-11-13T23:15:31.356Z,4.40
2018-11-13T23:17:59.792Z,4.30
2018-11-13T23:20:27.994Z,4.30
2018-11-13T23:22:55.983Z,4.20
2018-11-13T23:25:23.945Z,4.10
2018-11-13T23:27:52.417Z,4.00
2018-11-13T23:30:21.783Z,4.00
2018-11-13T23:32:50.158Z,3.90
2018-11-13T23:35:18.378Z,3.80
2018-11-13T23:37:47.734Z,3.70
2018-11-13T23:40:18.179Z,3.70
2018-11-13T23:42:46.761Z,3.60
2018-11-13T23:45:16.319Z,3.50
2018-11-13T23:47:44.985Z,3.40
2018-11-13T23:50:14.580Z,3.30
2018-11-13T23:52:43.029Z,3.30
2018-11-13T23:55:12.001Z,3.20
2018-11-13T23:57:40.370Z,3.30
